createdAt,value
2018-01-30T00:00:12.814Z,11.20
2018-01-30T00:02:40.316Z,7.87
2018-01-30T00:05:09.064Z,7.77
2018-01-30T00:07:36.659Z,7.23
2018-01-30T00:10:05.117Z,8.43
2018-01-30T00:12:32.651Z,7.50
2018-01-30T00:15:00.184Z,8.07
2018-01-30T00:17:27.752Z,8.70
2018-01-30T00:19:55.261Z,9.37
2018-01-30T00:22:22.810Z,8.60
2018-01-30T00:24:50.357Z,7.50
2018-01-30T00:27:17.925Z,8.50
2018-01-30T00:29:45.451Z,6.23
2018-01-30T00:32:12.975Z,6.10
2018-01-30T00:34:42.613Z,7.13
2018-01-30T00:37:10.163Z,6.80
2018-01-30T00:39:37.682Z,6.90
2018-01-30T00:42:05.215Z,6.20
2018-01-30T00:44:32.772Z,6.93
2018-01-30T00:47:00.286Z,6.80
2018-01-30T00:49:29.399Z,5.07
2018-01-30T00:51:56.961Z,6.00
2018-01-30T00:54:24.478Z,6.23
2018-01-30T00:56:52.017Z,6.80
2018-01-30T00:59:19.566Z,5.43
2018-01-30T01:01:47.222Z,5.60
2018-01-30T01:04:14.982Z,4.87
2018-01-30T01:06:42.501Z,4.90
2018-01-30T01:09:10.812Z,8.83
2018-01-30T01:11:38.395Z,5.37
2018-01-30T01:14:05.970Z,5.13
2018-01-30T01:16:33.518Z,4.53
2018-01-30T01:19:01.081Z,4.80
2018-01-30T01:21:28.678Z,4.90
2018-01-30T01:23:56.988Z,3.33
2018-01-30T01:26:24.500Z,3.77
2018-01-30T01:28:52.054Z,3.20
2018-01-30T01:31:19.596Z,2.40
2018-01-30T01:33:47.145Z,2.70
2018-01-30T01:36:14.679Z,3.10
2018-01-30T01:38:42.818Z,2.60
2018-01-30T01:41:11.145Z,3.20
2018-01-30T01:43:38.672Z,2.67
2018-01-30T01:46:06.246Z,2.40
2018-01-30T01:48:33.778Z,2.60
2018-01-30T01:51:01.345Z,2.40
2018-01-30T01:53:29.695Z,2.43
2018-01-30T01:55:57.982Z,2.10
2018-01-30T01:58:26.296Z,2.10
2018-01-30T02:00:53.867Z,2.03
2018-01-30T02:03:21.677Z,2.13
2018-01-30T02:05:49.288Z,2.17
2018-01-30T02:08:16.880Z,1.60
2018-01-30T02:10:44.421Z,2.20
2018-01-30T02:13:11.949Z,1.90
2018-01-30T02:15:39.507Z,2.03
2018-01-30T02:18:07.807Z,2.40
2018-01-30T02:20:36.247Z,2.27
2018-01-30T02:23:03.926Z,1.83
2018-01-30T02:25:32.263Z,2.10
2018-01-30T02:27:59.893Z,2.13
2018-01-30T02:30:28.145Z,2.30
2018-01-30T02:32:56.440Z,2.77
2018-01-30T02:35:24.597Z,2.73
2018-01-30T02:37:52.408Z,2.63
2018-01-30T02:40:19.950Z,2.53
2018-01-30T02:42:47.463Z,2.90
2018-01-30T02:45:16.008Z,2.73
2018-01-30T02:47:44.180Z,2.67
2018-01-30T02:50:11.863Z,3.00
2018-01-30T02:52:39.709Z,3.20
2018-01-30T02:55:09.219Z,3.50
2018-01-30T02:57:36.771Z,3.53
2018-01-30T03:00:04.462Z,3.10
2018-01-30T03:02:32.010Z,3.40
2018-01-30T03:04:59.732Z,3.43
2018-01-30T03:07:27.286Z,3.67
2018-01-30T03:09:54.848Z,3.93
2018-01-30T03:12:22.365Z,3.53
2018-01-30T03:14:49.955Z,3.40
2018-01-30T03:17:17.492Z,3.57
2018-01-30T03:19:45.058Z,3.23
2018-01-30T03:22:13.236Z,3.17
2018-01-30T03:24:41.529Z,2.90
2018-01-30T03:27:09.038Z,2.73
2018-01-30T03:29:37.442Z,2.77
2018-01-30T03:32:04.963Z,2.40
2018-01-30T03:34:32.507Z,3.17
2018-01-30T03:37:00.092Z,2.70
2018-01-30T03:39:27.638Z,2.40
2018-01-30T03:41:55.169Z,2.40
2018-01-30T03:44:22.763Z,2.37
2018-01-30T03:46:50.291Z,2.50
2018-01-30T03:49:17.825Z,2.10
2018-01-30T03:51:45.390Z,2.13
2018-01-30T03:54:13.676Z,1.77
2018-01-30T03:56:41.224Z,1.90
2018-01-30T03:59:09.535Z,1.60
2018-01-30T04:01:37.118Z,2.23
2018-01-30T04:04:04.717Z,1.57
2018-01-30T04:06:33.015Z,2.00
2018-01-30T04:09:00.607Z,1.60
2018-01-30T04:11:28.130Z,1.80
2018-01-30T04:13:58.628Z,1.33
2018-01-30T04:16:26.213Z,1.60
2018-01-30T04:18:54.402Z,1.67
2018-01-30T04:21:21.980Z,1.60
2018-01-30T04:23:49.531Z,1.80
2018-01-30T04:26:17.062Z,1.50
2018-01-30T04:28:45.455Z,1.40
2018-01-30T04:31:13.001Z,1.47
2018-01-30T04:33:40.526Z,1.20
2018-01-30T04:36:08.090Z,1.60
2018-01-30T04:38:35.684Z,1.40
2018-01-30T04:41:04.062Z,1.57
2018-01-30T04:43:31.627Z,1.50
2018-01-30T04:48:33.335Z,1.43
2018-01-30T04:51:00.874Z,1.23
2018-01-30T04:53:28.394Z,1.47
2018-01-30T04:55:56.707Z,1.43
2018-01-30T04:58:24.281Z,1.47
2018-01-30T05:00:52.867Z,1.30
2018-01-30T05:03:20.445Z,1.40
2018-01-30T05:05:47.988Z,1.07
2018-01-30T05:08:16.248Z,1.30
2018-01-30T05:10:43.822Z,1.43
2018-01-30T05:13:12.292Z,1.20
2018-01-30T05:15:39.849Z,1.20
2018-01-30T05:18:07.437Z,1.50
2018-01-30T05:20:34.994Z,1.60
2018-01-30T05:23:02.570Z,1.33
2018-01-30T05:25:30.149Z,1.40
2018-01-30T05:27:58.581Z,1.27
2018-01-30T05:30:26.097Z,1.30
2018-01-30T05:32:54.509Z,1.40
2018-01-30T05:35:22.025Z,1.37
2018-01-30T05:37:49.530Z,1.30
2018-01-30T05:40:17.101Z,1.43
2018-01-30T05:42:44.610Z,1.40
2018-01-30T05:45:12.147Z,1.47
2018-01-30T05:47:39.698Z,1.20
2018-01-30T05:50:07.334Z,1.37
2018-01-30T05:52:34.853Z,1.30
2018-01-30T05:55:02.437Z,1.43
2018-01-30T05:57:30.758Z,0.90
2018-01-30T05:59:58.293Z,1.23
2018-01-30T06:02:25.853Z,1.20
2018-01-30T06:04:53.433Z,1.00
2018-01-30T06:07:20.973Z,0.90
2018-01-30T06:09:48.500Z,1.00
2018-01-30T06:12:16.061Z,0.80
2018-01-30T06:14:43.612Z,0.60
2018-01-30T06:17:11.147Z,0.80
2018-01-30T06:19:38.758Z,0.50
2018-01-30T06:22:06.302Z,0.50
2018-01-30T06:24:34.595Z,0.60
2018-01-30T06:27:02.146Z,0.40
2018-01-30T06:29:29.695Z,0.70
2018-01-30T06:31:57.989Z,1.00
2018-01-30T06:34:25.551Z,0.73
2018-01-30T06:36:53.109Z,0.40
2018-01-30T06:39:21.446Z,0.70
2018-01-30T06:41:48.991Z,0.80
2018-01-30T06:44:16.544Z,0.70
2018-01-30T06:46:44.274Z,0.70
2018-01-30T06:49:11.822Z,1.00
2018-01-30T06:51:39.381Z,0.90
2018-01-30T06:54:06.944Z,1.23
2018-01-30T06:56:34.466Z,1.67
2018-01-30T06:59:01.989Z,1.33
2018-01-30T07:01:29.620Z,0.60
2018-01-30T07:03:59.232Z,0.80
2018-01-30T07:06:27.440Z,0.80
2018-01-30T07:08:55.436Z,0.70
2018-01-30T07:11:22.984Z,0.63
2018-01-30T07:13:50.589Z,0.77
2018-01-30T07:16:18.191Z,0.83
2018-01-30T07:18:45.716Z,0.80
2018-01-30T07:21:14.051Z,0.73
2018-01-30T07:23:41.640Z,0.70
2018-01-30T07:26:09.159Z,0.70
2018-01-30T07:28:37.059Z,0.70
2018-01-30T07:31:05.358Z,0.73
2018-01-30T07:33:32.919Z,0.70
2018-01-30T07:36:01.322Z,0.80
2018-01-30T07:38:28.860Z,0.80
2018-01-30T07:40:56.433Z,0.70
2018-01-30T07:43:23.967Z,0.80
2018-01-30T07:45:51.524Z,0.77
2018-01-30T07:48:19.081Z,0.97
2018-01-30T07:50:46.641Z,0.90
2018-01-30T07:53:15.439Z,1.03
2018-01-30T07:55:43.004Z,1.10
2018-01-30T07:58:11.322Z,0.70
2018-01-30T08:00:38.882Z,0.90
2018-01-30T08:03:06.443Z,0.80
2018-01-30T08:05:33.964Z,0.70
2018-01-30T08:08:01.562Z,0.87
2018-01-30T08:10:29.189Z,1.23
2018-01-30T08:12:56.897Z,1.00
2018-01-30T08:15:24.457Z,1.03
2018-01-30T08:17:52.208Z,1.17
2018-01-30T08:20:19.883Z,0.90
2018-01-30T08:22:47.432Z,0.70
2018-01-30T08:25:15.025Z,0.83
2018-01-30T08:27:43.369Z,0.60
2018-01-30T08:30:10.935Z,0.90
2018-01-30T08:32:40.426Z,0.77
2018-01-30T08:35:07.974Z,0.60
2018-01-30T08:37:35.561Z,0.90
2018-01-30T08:40:03.214Z,1.07
2018-01-30T08:42:30.807Z,1.10
2018-01-30T08:44:58.769Z,1.20
2018-01-30T08:47:26.368Z,1.00
2018-01-30T08:49:54.217Z,0.90
2018-01-30T08:52:22.587Z,0.83
2018-01-30T08:54:50.139Z,0.90
2018-01-30T08:57:17.769Z,1.20
2018-01-30T08:59:45.316Z,0.90
2018-01-30T09:02:16.014Z,0.80
2018-01-30T09:04:43.614Z,0.90
2018-01-30T09:07:11.225Z,1.17
2018-01-30T09:09:38.786Z,1.13
2018-01-30T09:12:06.354Z,0.73
2018-01-30T09:14:34.004Z,0.80
2018-01-30T09:17:02.409Z,0.97
2018-01-30T09:19:30.765Z,1.00
2018-01-30T09:22:00.920Z,1.03
2018-01-30T09:24:28.456Z,0.70
2018-01-30T09:26:56.946Z,1.20
2018-01-30T09:29:24.538Z,1.13
2018-01-30T09:31:52.189Z,1.03
2018-01-30T09:34:20.241Z,1.10
2018-01-30T09:36:47.897Z,0.80
2018-01-30T09:39:17.523Z,0.80
2018-01-30T09:41:45.936Z,0.90
2018-01-30T09:44:14.568Z,1.07
2018-01-30T09:46:42.998Z,1.30
2018-01-30T09:49:11.626Z,1.17
2018-01-30T09:51:39.208Z,0.97
2018-01-30T09:54:07.010Z,0.93
2018-01-30T09:56:34.597Z,0.73
2018-01-30T09:59:02.158Z,0.90
2018-01-30T10:01:30.377Z,0.80
2018-01-30T10:03:57.960Z,1.10
2018-01-30T10:06:25.586Z,0.90
2018-01-30T10:08:54.220Z,1.73
2018-01-30T10:11:21.792Z,0.90
2018-01-30T10:13:49.386Z,1.33
2018-01-30T10:16:17.810Z,1.67
2018-01-30T10:18:45.386Z,2.10
2018-01-30T10:21:13.813Z,1.30
2018-01-30T10:23:42.236Z,1.60
2018-01-30T10:26:11.335Z,1.30
2018-01-30T10:28:38.934Z,1.13
2018-01-30T10:31:07.690Z,1.00
2018-01-30T10:33:35.539Z,1.17
2018-01-30T10:36:03.725Z,1.10
2018-01-30T10:38:32.410Z,1.00
2018-01-30T10:41:00.060Z,1.07
2018-01-30T10:43:27.778Z,1.03
2018-01-30T10:45:56.568Z,0.90
2018-01-30T10:48:24.188Z,1.13
2018-01-30T10:50:52.119Z,0.67
2018-01-30T10:53:20.618Z,1.07
2018-01-30T10:55:48.438Z,1.10
2018-01-30T10:58:17.133Z,1.03
2018-01-30T11:00:45.770Z,0.83
2018-01-30T11:03:13.438Z,1.00
2018-01-30T11:05:41.393Z,0.80
2018-01-30T11:08:10.022Z,0.90
2018-01-30T11:10:38.881Z,1.00
2018-01-30T11:13:07.708Z,1.07
2018-01-30T11:15:36.078Z,1.50
2018-01-30T11:18:04.045Z,1.23
2018-01-30T11:20:31.734Z,2.13
2018-01-30T11:23:00.292Z,1.47
2018-01-30T11:25:29.652Z,1.73
2018-01-30T11:27:57.365Z,1.30
2018-01-30T11:30:25.081Z,1.70
2018-01-30T11:32:52.712Z,1.80
2018-01-30T11:35:20.489Z,1.40
2018-01-30T11:37:48.125Z,2.00
2018-01-30T11:40:16.557Z,2.23
2018-01-30T11:42:44.160Z,1.43
2018-01-30T11:45:11.792Z,1.00
2018-01-30T11:47:39.536Z,1.10
2018-01-30T11:50:07.567Z,1.50
2018-01-30T11:52:35.953Z,1.20
2018-01-30T11:55:03.715Z,1.40
2018-01-30T11:57:31.413Z,1.40
2018-01-30T11:59:59.007Z,1.20
2018-01-30T12:02:27.011Z,1.50
2018-01-30T12:04:55.470Z,1.60
2018-01-30T12:07:23.279Z,41.97
2018-01-30T12:09:51.638Z,3.50
2018-01-30T12:12:21.145Z,3.60
2018-01-30T12:14:50.294Z,2.20
2018-01-30T12:17:17.907Z,3.43
2018-01-30T12:19:46.429Z,2.97
2018-01-30T12:22:14.815Z,4.20
2018-01-30T12:24:42.435Z,3.67
2018-01-30T12:27:10.255Z,2.40
2018-01-30T12:29:37.849Z,4.13
2018-01-30T12:32:05.447Z,1.90
2018-01-30T12:34:33.027Z,2.37
2018-01-30T12:37:00.907Z,1.80
2018-01-30T12:39:28.521Z,3.77
2018-01-30T12:41:56.146Z,2.90
2018-01-30T12:44:23.722Z,2.70
2018-01-30T12:46:51.310Z,2.20
2018-01-30T12:49:18.930Z,2.40
2018-01-30T12:51:47.275Z,3.37
2018-01-30T12:54:14.896Z,4.23
2018-01-30T12:56:42.447Z,4.10
2018-01-30T12:59:10.012Z,3.63
2018-01-30T13:01:37.941Z,3.63
2018-01-30T13:04:05.404Z,2.10
2018-01-30T13:06:33.022Z,1.60
2018-01-30T13:09:00.691Z,2.03
2018-01-30T13:11:28.263Z,3.47
2018-01-30T13:13:55.928Z,3.77
2018-01-30T13:16:24.760Z,2.80
2018-01-30T13:18:52.329Z,7.50
2018-01-30T13:21:19.908Z,4.80
2018-01-30T13:23:47.482Z,2.27
2018-01-30T13:26:15.135Z,2.70
2018-01-30T13:28:42.694Z,2.90
2018-01-30T13:31:10.849Z,2.60
2018-01-30T13:33:38.590Z,2.73
2018-01-30T13:36:07.215Z,2.37
2018-01-30T13:38:35.136Z,2.93
2018-01-30T13:41:03.522Z,4.33
2018-01-30T13:43:31.864Z,3.00
2018-01-30T13:46:00.498Z,2.83
2018-01-30T13:48:28.136Z,2.90
2018-01-30T13:50:55.715Z,2.53
2018-01-30T13:53:24.040Z,2.73
2018-01-30T13:55:51.621Z,2.30
2018-01-30T13:58:19.226Z,2.10
2018-01-30T14:00:46.819Z,2.20
2018-01-30T14:03:14.517Z,2.47
2018-01-30T14:05:42.087Z,2.03
2018-01-30T14:08:09.681Z,2.30
2018-01-30T14:10:37.238Z,2.00
2018-01-30T14:13:04.831Z,2.30
2018-01-30T14:15:32.439Z,2.70
2018-01-30T14:18:00.074Z,2.30
2018-01-30T14:20:27.642Z,2.40
2018-01-30T14:22:55.216Z,2.00
2018-01-30T14:25:22.878Z,2.83
2018-01-30T14:27:51.826Z,1.80
2018-01-30T14:30:19.729Z,2.03
2018-01-30T14:32:47.412Z,1.53
2018-01-30T14:35:16.893Z,2.27
2018-01-30T14:37:45.472Z,2.00
2018-01-30T14:40:13.024Z,1.87
2018-01-30T14:42:40.842Z,1.70
2018-01-30T14:45:09.182Z,1.97
2018-01-30T14:47:37.035Z,2.50
2018-01-30T14:50:04.855Z,2.50
2018-01-30T14:52:32.488Z,3.30
2018-01-30T14:55:00.111Z,2.73
2018-01-30T14:57:27.877Z,2.20
2018-01-30T14:59:55.616Z,2.10
2018-01-30T15:02:23.253Z,2.43
2018-01-30T15:04:51.726Z,3.80
2018-01-30T15:07:20.090Z,4.50
2018-01-30T15:09:47.753Z,5.13
2018-01-30T15:12:15.439Z,4.77
2018-01-30T15:14:43.906Z,4.03
2018-01-30T15:17:11.486Z,3.63
2018-01-30T15:19:39.997Z,3.87
2018-01-30T15:22:07.895Z,3.30
2018-01-30T15:24:36.089Z,2.30
2018-01-30T15:27:03.816Z,2.80
2018-01-30T15:29:31.393Z,2.63
2018-01-30T15:31:59.132Z,1.80
2018-01-30T15:34:27.560Z,1.90
2018-01-30T15:36:55.882Z,2.70
2018-01-30T15:39:23.571Z,2.00
2018-01-30T15:41:51.154Z,3.30
2018-01-30T15:44:18.824Z,4.47
2018-01-30T15:46:46.579Z,2.43
2018-01-30T15:49:14.449Z,2.10
2018-01-30T15:51:42.114Z,1.80
2018-01-30T15:54:09.731Z,2.07
2018-01-30T15:56:37.386Z,2.20
2018-01-30T15:59:05.068Z,3.37
2018-01-30T16:01:32.607Z,4.40
2018-01-30T16:04:00.358Z,3.10
2018-01-30T16:06:29.123Z,4.30
2018-01-30T16:08:57.776Z,4.03
2018-01-30T16:11:25.394Z,4.50
2018-01-30T16:13:53.791Z,3.50
2018-01-30T16:16:21.533Z,6.73
2018-01-30T16:18:49.176Z,3.93
2018-01-30T16:21:16.820Z,3.20
2018-01-30T16:23:44.471Z,3.77
2018-01-30T16:26:12.084Z,2.70
2018-01-30T16:28:39.809Z,4.40
2018-01-30T16:31:07.381Z,3.10
2018-01-30T16:33:35.246Z,3.70
2018-01-30T16:36:03.785Z,3.43
2018-01-30T16:38:31.451Z,3.37
2018-01-30T16:40:59.084Z,3.27
2018-01-30T16:43:26.691Z,5.70
2018-01-30T16:45:54.693Z,4.03
2018-01-30T16:48:23.076Z,3.60
2018-01-30T16:50:50.850Z,3.77
2018-01-30T16:53:18.928Z,4.30
2018-01-30T16:55:46.812Z,3.40
2018-01-30T16:58:14.554Z,4.60
2018-01-30T17:00:42.541Z,4.10
2018-01-30T17:03:10.108Z,4.17
2018-01-30T17:05:37.687Z,4.23
2018-01-30T17:08:05.492Z,4.50
2018-01-30T17:10:34.042Z,3.60
2018-01-30T17:13:01.700Z,4.77
2018-01-30T17:15:29.426Z,5.40
2018-01-30T17:17:56.992Z,5.40
2018-01-30T17:20:24.752Z,4.03
2018-01-30T17:22:52.429Z,5.30
2018-01-30T17:25:20.077Z,5.77
2018-01-30T17:27:47.667Z,5.47
2018-01-30T17:30:15.353Z,4.60
2018-01-30T17:32:43.027Z,3.60
2018-01-30T17:35:10.851Z,4.20
2018-01-30T17:37:38.703Z,3.83
2018-01-30T17:40:07.302Z,3.30
2018-01-30T17:42:36.027Z,3.37
2018-01-30T17:45:04.732Z,4.67
2018-01-30T17:47:32.381Z,4.47
2018-01-30T17:50:01.229Z,6.80
2018-01-30T17:52:28.891Z,6.70
2018-01-30T17:54:56.597Z,9.07
2018-01-30T17:57:24.642Z,7.67
2018-01-30T17:59:52.323Z,7.60
2018-01-30T18:02:19.875Z,6.17
2018-01-30T18:04:47.563Z,4.90
2018-01-30T18:07:16.792Z,6.13
2018-01-30T18:09:44.353Z,7.80
2018-01-30T18:12:12.102Z,7.23
2018-01-30T18:14:40.627Z,7.10
2018-01-30T18:17:08.316Z,7.57
2018-01-30T18:19:36.841Z,8.00
2018-01-30T18:22:05.191Z,6.10
2018-01-30T18:24:33.581Z,6.10
2018-01-30T18:27:01.180Z,5.13
2018-01-30T18:29:29.525Z,4.20
2018-01-30T18:31:57.187Z,5.07
2018-01-30T18:34:25.637Z,4.87
2018-01-30T18:36:53.248Z,4.90
2018-01-30T18:39:20.952Z,5.30
2018-01-30T18:41:48.522Z,5.43
2018-01-30T18:44:16.957Z,4.60
2018-01-30T18:46:44.682Z,4.37
2018-01-30T18:49:13.170Z,5.13
2018-01-30T18:51:41.540Z,5.37
2018-01-30T18:54:09.123Z,4.90
2018-01-30T18:56:36.667Z,5.40
2018-01-30T18:59:05.487Z,6.17
2018-01-30T19:01:33.301Z,9.13
2018-01-30T19:04:00.905Z,8.67
2018-01-30T19:06:28.456Z,6.40
2018-01-30T19:08:56.003Z,7.77
2018-01-30T19:11:24.356Z,8.43
2018-01-30T19:13:51.940Z,6.80
2018-01-30T19:16:20.504Z,8.53
2018-01-30T19:18:48.111Z,6.63
2018-01-30T19:21:16.409Z,5.80
2018-01-30T19:23:44.791Z,7.80
2018-01-30T19:26:12.922Z,6.20
2018-01-30T19:28:41.336Z,7.77
2018-01-30T19:31:09.401Z,4.67
2018-01-30T19:33:37.038Z,5.57
2018-01-30T19:36:04.844Z,6.00
2018-01-30T19:38:32.409Z,8.90
2018-01-30T19:41:00.120Z,15.63
2018-01-30T19:43:28.486Z,10.50
2018-01-30T19:45:56.833Z,8.27
2018-01-30T19:48:24.427Z,9.60
2018-01-30T19:50:52.785Z,10.90
2018-01-30T19:53:20.542Z,7.10
2018-01-30T19:55:48.154Z,7.90
2018-01-30T19:58:16.034Z,7.00
2018-01-30T20:00:43.640Z,7.70
2018-01-30T20:03:11.339Z,7.43
2018-01-30T20:05:39.905Z,6.80
2018-01-30T20:08:07.703Z,7.87
2018-01-30T20:10:35.269Z,7.03
2018-01-30T20:13:02.929Z,7.03
2018-01-30T20:15:30.496Z,8.23
2018-01-30T20:17:58.866Z,9.40
2018-01-30T20:20:26.720Z,12.43
2018-01-30T20:22:54.398Z,10.97
2018-01-30T20:25:22.817Z,9.13
2018-01-30T20:27:50.382Z,8.67
2018-01-30T20:30:18.094Z,9.63
2018-01-30T20:32:46.050Z,8.97
2018-01-30T20:35:14.860Z,10.23
2018-01-30T20:37:43.945Z,8.10
2018-01-30T20:40:11.816Z,9.10
2018-01-30T20:42:39.456Z,8.43
2018-01-30T20:45:07.406Z,8.90
2018-01-30T20:47:35.017Z,8.93
2018-01-30T20:50:03.312Z,8.30
2018-01-30T20:52:30.959Z,8.43
2018-01-30T20:54:58.618Z,8.30
2018-01-30T20:57:26.202Z,8.30
2018-01-30T20:59:53.895Z,9.37
2018-01-30T21:02:21.498Z,10.80
2018-01-30T21:04:49.141Z,11.00
2018-01-30T21:07:16.945Z,11.70
2018-01-30T21:09:44.637Z,9.60
2018-01-30T21:12:12.493Z,10.10
2018-01-30T21:14:40.866Z,12.93
2018-01-30T21:17:09.729Z,12.00
2018-01-30T21:19:37.337Z,13.27
2018-01-30T21:22:05.064Z,11.90
2018-01-30T21:24:32.931Z,11.03
2018-01-30T21:27:00.672Z,9.33
2018-01-30T21:29:28.628Z,9.57
2018-01-30T21:31:57.174Z,9.23
2018-01-30T21:34:25.030Z,10.83
2018-01-30T21:36:52.672Z,12.93
2018-01-30T21:39:20.295Z,10.90
2018-01-30T21:41:47.995Z,13.33
2018-01-30T21:44:15.961Z,10.70
2018-01-30T21:46:43.658Z,13.00
2018-01-30T21:49:12.209Z,28.10
2018-01-30T21:51:40.062Z,19.03
2018-01-30T21:54:08.195Z,14.73
2018-01-30T21:56:37.754Z,18.07
2018-01-30T21:59:05.305Z,20.77
2018-01-30T22:01:34.086Z,13.73
2018-01-30T22:04:02.884Z,10.70
2018-01-30T22:06:30.526Z,9.90
2018-01-30T22:08:58.153Z,10.73
2018-01-30T22:11:26.796Z,8.90
2018-01-30T22:13:54.746Z,10.10
2018-01-30T22:16:22.744Z,9.83
2018-01-30T22:18:50.504Z,10.37
2018-01-30T22:21:18.176Z,12.30
2018-01-30T22:23:45.900Z,10.33
2018-01-30T22:26:15.388Z,9.10
2018-01-30T22:28:43.731Z,9.90
2018-01-30T22:31:11.296Z,10.47
2018-01-30T22:33:38.856Z,8.70
2018-01-30T22:36:06.552Z,9.40
2018-01-30T22:38:34.976Z,9.10
2018-01-30T22:41:02.555Z,10.20
2018-01-30T22:43:30.229Z,9.40
2018-01-30T22:45:57.854Z,9.20
